Time;durP1;ratioP1;P1;durP2;ratioP2;P2;SDS_P1;SDS_P2;PMS_P1;PMS_P2;Temp;Humidity;BMP_temperature;BMP_pressure;BME280_temperature;BME280_humidity;BME280_pressure;Samples;Min_cycle;Max_cycle;Signal;HPM_P1;HPM_P2
2023/03/27 00:00:33;;;;;;;27.10;15.80;;;;;;;5.12;82.57;99183.88;105102;1264;97977;-76
2023/03/27 00:03:19;;;;;;;27.30;17.30;;;;;;;5.09;82.68;99183.02;105319;1264;97873;-76
2023/03/27 00:06:15;;;;;;;33.30;18.10;;;;;;;5.08;82.69;99181.02;104779;1264;102688;-77
2023/03/27 00:09:02;;;;;;;31.10;18.50;;;;;;;5.08;83.03;99182.77;104768;1268;99176;-77
2023/03/27 00:11:48;;;;;;;28.10;17.80;;;;;;;5.06;83.36;99177.16;104832;1264;100221;-77
2023/03/27 00:14:33;;;;;;;27.50;16.40;;;;;;;5.01;83.06;99172.19;105073;1267;97907;-77
2023/03/27 00:17:19;;;;;;;25.70;16.30;;;;;;;4.93;83.03;99169.60;105019;1267;98605;-77
2023/03/27 00:20:05;;;;;;;30.60;17.20;;;;;;;4.86;82.59;99172.25;104853;1264;101511;-77
2023/03/27 00:22:55;;;;;;;29.00;16.70;;;;;;;4.80;82.72;99175.44;105043;1268;100339;-76
2023/03/27 00:25:41;;;;;;;31.10;16.70;;;;;;;4.77;82.95;99174.78;104955;1266;98732;-77
2023/03/27 00:28:28;;;;;;;31.10;18.30;;;;;;;4.74;83.06;99172.62;105030;1266;97994;-76
2023/03/27 00:31:14;;;;;;;32.60;17.80;;;;;;;4.72;83.18;99171.25;104829;1267;98218;-75
2023/03/27 00:34:02;;;;;;;30.60;17.30;;;;;;;4.72;83.94;99171.26;105086;1264;101443;-76
2023/03/27 00:36:50;;;;;;;28.50;17.40;;;;;;;4.76;84.43;99171.02;105101;1268;100324;-77
2023/03/27 00:39:35;;;;;;;34.60;18.20;;;;;;;4.75;84.53;99168.11;104957;1264;98664;-76
2023/03/27 00:42:22;;;;;;;30.60;17.90;;;;;;;4.71;84.31;99164.70;105012;1264;98077;-77
2023/03/27 00:45:16;;;;;;;32.10;18.90;;;;;;;4.65;84.29;99160.14;105080;1265;98585;-74
2023/03/27 00:48:05;;;;;;;26.10;16.90;;;;;;;4.59;84.30;99157.48;104975;1267;102595;-76
2023/03/27 00:50:52;;;;;;;30.60;16.30;;;;;;;4.55;84.31;99156.38;105113;1267;100347;-77
2023/03/27 00:53:37;;;;;;;26.70;15.80;;;;;;;4.52;84.20;99150.73;104867;1268;97950;-77
2023/03/27 00:56:23;;;;;;;27.50;15.70;;;;;;;4.46;84.27;99144.39;104905;1267;97901;-76
2023/03/27 00:59:14;;;;;;;29.80;17.20;;;;;;;4.40;84.30;99138.02;104901;1265;98440;-76
2023/03/27 01:02:02;;;;;;;24.50;14.90;;;;;;;4.36;84.18;99138.56;104982;1264;102598;-76
2023/03/27 01:04:49;;;;;;;25.40;14.80;;;;;;;4.29;84.05;99141.81;105541;1266;99997;-78
2023/03/27 01:07:36;;;;;;;26.10;14.70;;;;;;;4.26;84.07;99141.70;105041;1267;98413;-76
2023/03/27 01:10:43;;;;;;;28.00;16.00;;;;;;;4.22;83.96;99143.19;104749;1266;97900;-77
2023/03/27 01:13:44;;;;;;;30.50;17.00;;;;;;;4.24;85.03;99149.04;104762;1264;98589;-77
2023/03/27 01:17:05;;;;;;;31.40;16.90;;;;;;;4.29;86.02;99151.69;104719;1262;101397;-76
2023/03/27 01:20:16;;;;;;;29.70;16.80;;;;;;;4.32;85.16;99155.15;104962;1268;99100;-75
2023/03/27 01:23:38;;;;;;;24.30;15.90;;;;;;;4.29;84.55;99156.85;104603;1268;98657;-75
2023/03/27 01:26:58;;;;;;;32.70;18.10;;;;;;;4.26;84.46;99152.08;104920;1269;98553;-77
2023/03/27 01:30:01;;;;;;;29.60;18.70;;;;;;;4.23;84.51;99150.00;104728;1269;98436;-75
2023/03/27 01:32:53;;;;;;;29.60;18.30;;;;;;;4.21;84.29;99147.08;104788;1265;102623;-76
2023/03/27 01:36:01;;;;;;;34.40;22.10;;;;;;;4.17;84.07;99151.26;104976;1264;100397;-76
2023/03/27 01:39:12;;;;;;;36.60;20.70;;;;;;;4.13;84.26;99157.03;104579;1270;98772;-76
2023/03/27 01:42:25;;;;;;;30.80;19.40;;;;;;;4.10;84.47;99161.63;104701;1264;97958;-78
2023/03/27 01:45:22;;;;;;;30.10;18.60;;;;;;;4.09;84.44;99163.93;104870;1266;99604;-77
2023/03/27 01:48:31;;;;;;;38.00;25.00;;;;;;;4.08;84.22;99164.17;104806;1268;102626;-76
2023/03/27 01:51:31;;;;;;;31.20;19.40;;;;;;;4.04;84.31;99168.83;104857;1270;100127;-78
2023/03/27 01:54:26;;;;;;;32.90;16.90;;;;;;;3.94;84.24;99171.27;104959;1268;98055;-77
2023/03/27 01:57:21;;;;;;;24.90;17.00;;;;;;;3.87;84.35;99176.70;104735;1270;98677;-77
2023/03/27 02:00:16;;;;;;;26.20;16.30;;;;;;;3.84;84.59;99174.33;105260;1268;98441;-77
2023/03/27 02:03:14;;;;;;;27.50;16.90;;;;;;;3.83;84.49;99175.54;104805;1263;101367;-77
2023/03/27 02:06:09;;;;;;;26.60;16.20;;;;;;;3.82;84.50;99171.95;104846;1266;99748;-76
2023/03/27 02:09:03;;;;;;;30.20;17.40;;;;;;;3.83;84.59;99170.08;104734;1267;99003;-76
2023/03/27 02:11:55;;;;;;;25.10;15.40;;;;;;;3.83;84.76;99164.95;105008;1268;97947;-76
2023/03/27 02:14:50;;;;;;;27.20;15.80;;;;;;;3.84;84.83;99161.13;104940;1266;98488;-77
2023/03/27 02:17:41;;;;;;;26.80;15.90;;;;;;;3.85;85.12;99161.71;104813;1271;101363;-76
2023/03/27 02:20:26;;;;;;;;;;;;;;;3.85;84.82;99161.19;105287;1268;100326;-77
2023/03/27 02:23:16;;;;;;;26.20;15.80;;;;;;;3.81;84.99;99163.68;104893;1265;98998;-77
2023/03/27 02:26:03;;;;;;;30.30;16.90;;;;;;;3.78;84.91;99169.67;104964;1266;99356;-76
2023/03/27 02:29:01;;;;;;;27.00;15.30;;;;;;;3.75;84.71;99169.83;105083;1264;97888;-77
2023/03/27 02:32:27;;;;;;;26.70;16.20;;;;;;;3.71;84.60;99172.90;104768;1270;102529;-77
2023/03/27 02:35:45;;;;;;;26.20;16.10;;;;;;;3.66;84.83;99170.66;104808;1266;99211;-75
2023/03/27 02:39:15;;;;;;;24.90;16.30;;;;;;;3.62;84.84;99169.02;104833;1262;97967;-77
2023/03/27 02:42:04;;;;;;;;;;;;;;;3.59;84.47;99167.86;104850;1264;98056;-77
2023/03/27 02:45:15;;;;;;;27.70;15.20;;;;;;;3.53;84.37;99167.67;105015;1268;98498;-77
2023/03/27 02:48:33;;;;;;;26.50;16.30;;;;;;;3.50;84.29;99168.89;104883;1264;102221;-76
2023/03/27 02:51:30;;;;;;;26.70;16.60;;;;;;;3.49;84.32;99173.91;104662;1268;100482;-75
2023/03/27 02:54:24;;;;;;;31.30;16.70;;;;;;;3.46;84.77;99179.40;104735;1268;99446;-76
2023/03/27 02:57:15;;;;;;;27.90;16.70;;;;;;;3.43;84.55;99182.27;104698;1268;98007;-76
2023/03/27 03:00:42;;;;;;;30.60;17.80;;;;;;;3.35;84.26;99184.60;104822;1265;97778;-77
2023/03/27 03:03:57;;;;;;;31.70;18.20;;;;;;;3.27;84.22;99188.48;104757;1265;101456;-77
2023/03/27 03:06:54;;;;;;;31.00;16.90;;;;;;;3.23;84.49;99189.48;104518;1271;100380;-76
2023/03/27 03:09:43;;;;;;;33.10;17.50;;;;;;;3.19;84.75;99193.80;104873;1268;98654;-76
2023/03/27 03:12:28;;;;;;;29.30;17.40;;;;;;;3.16;85.05;99195.95;105387;1265;99247;-76
2023/03/27 03:15:14;;;;;;;26.50;17.20;;;;;;;3.15;85.27;99193.95;104800;1268;98534;-76
2023/03/27 03:18:00;;;;;;;29.60;17.60;;;;;;;3.13;85.44;99202.40;104898;1268;101382;-78
2023/03/27 03:20:45;;;;;;;31.00;17.30;;;;;;;3.14;85.55;99200.02;104971;1266;100057;-77
2023/03/27 03:23:31;;;;;;;28.90;17.40;;;;;;;3.16;85.63;99195.93;104953;1267;99541;-77
2023/03/27 03:26:16;;;;;;;27.10;16.10;;;;;;;3.17;85.86;99199.86;104833;1268;98080;-77
2023/03/27 03:29:04;;;;;;;27.90;17.00;;;;;;;3.19;86.03;99197.37;105105;1268;98491;-75
2023/03/27 03:31:52;;;;;;;28.80;17.20;;;;;;;3.21;86.16;99201.60;104763;1264;102095;-76
2023/03/27 03:34:40;;;;;;;26.40;16.60;;;;;;;3.21;86.48;99198.52;104912;1268;100797;-76
2023/03/27 03:37:27;;;;;;;26.60;16.10;;;;;;;3.20;86.60;99192.39;104817;1271;98068;-77
2023/03/27 03:40:13;;;;;;;29.60;15.40;;;;;;;3.18;86.61;99190.14;104885;1266;97981;-77
2023/03/27 03:43:02;;;;;;;31.60;16.90;;;;;;;3.15;86.58;99194.61;104913;1265;98119;-76
2023/03/27 03:45:49;;;;;;;27.60;16.70;;;;;;;3.13;86.64;99196.58;104965;1270;101908;-76
2023/03/27 03:48:35;;;;;;;24.60;14.70;;;;;;;3.14;87.23;99193.00;104812;1268;100931;-77
2023/03/27 03:51:21;;;;;;;25.50;15.80;;;;;;;3.15;87.16;99194.16;104772;1265;99005;-75
2023/03/27 03:54:08;;;;;;;24.40;14.20;;;;;;;3.13;87.10;99197.51;104764;1266;97982;-76
2023/03/27 03:56:53;;;;;;;25.90;15.90;;;;;;;3.15;87.53;99202.92;104863;1264;99201;-78
2023/03/27 03:59:39;;;;;;;24.80;15.20;;;;;;;3.19;87.92;99204.58;107929;1266;102234;-79
2023/03/27 04:02:42;;;;;;;24.30;16.10;;;;;;;3.24;87.95;99205.12;104954;1269;99250;-77
2023/03/27 04:05:30;;;;;;;26.20;15.60;;;;;;;3.27;88.21;99200.63;104947;1265;98659;-78
2023/03/27 04:08:17;;;;;;;23.80;14.40;;;;;;;3.32;88.54;99200.51;104981;1270;97994;-77
2023/03/27 04:11:14;;;;;;;24.00;15.70;;;;;;;3.35;88.55;99205.27;104913;1268;98436;-78
2023/03/27 04:14:29;;;;;;;24.60;13.70;;;;;;;3.36;88.72;99207.74;104891;1266;101975;-77
2023/03/27 04:17:15;;;;;;;23.40;14.60;;;;;;;3.38;89.02;99214.55;105092;1268;99432;-76
2023/03/27 04:20:01;;;;;;;25.10;14.40;;;;;;;3.41;89.22;99214.96;104839;1265;99028;-77
2023/03/27 04:22:48;;;;;;;22.80;15.10;;;;;;;3.43;89.29;99221.98;104869;1262;98126;-77
2023/03/27 04:25:35;;;;;;;23.40;14.30;;;;;;;3.45;89.34;99231.56;104981;1270;98418;-77
2023/03/27 04:28:21;;;;;;;26.60;14.80;;;;;;;3.47;89.33;99239.95;104922;1266;101321;-76
2023/03/27 04:31:13;;;;;;;;;;;;;;;3.50;89.57;99237.92;104791;1268;100111;-76
2023/03/27 04:34:19;;;;;;;20.70;13.70;;;;;;;3.50;89.58;99243.54;105099;1263;98099;-77
2023/03/27 04:37:23;;;;;;;21.70;13.80;;;;;;;3.53;89.82;99247.46;104925;1271;97966;-77
2023/03/27 04:40:19;;;;;;;27.50;14.80;;;;;;;3.55;89.92;99249.12;104887;1271;97978;-78
2023/03/27 04:43:07;;;;;;;24.60;14.80;;;;;;;3.57;90.18;99252.71;104827;1266;102947;-77
2023/03/27 04:45:53;;;;;;;24.60;13.90;;;;;;;3.60;90.62;99259.16;104754;1271;99160;-77
2023/03/27 04:48:39;;;;;;;28.00;16.20;;;;;;;3.62;90.88;99254.32;104961;1268;99218;-76
2023/03/27 04:51:35;;;;;;;23.60;14.20;;;;;;;3.66;91.11;99252.11;104830;1270;98892;-77
2023/03/27 04:54:22;;;;;;;20.30;13.20;;;;;;;3.70;91.13;99251.61;104830;1266;98044;-77
2023/03/27 04:57:08;;;;;;;21.70;14.00;;;;;;;3.72;91.35;99252.30;104890;1265;101371;-76
2023/03/27 04:59:56;;;;;;;21.80;13.10;;;;;;;3.72;91.65;99254.79;105032;1268;99079;-76
2023/03/27 05:03:12;;;;;;;23.30;14.20;;;;;;;3.71;92.11;99258.73;104418;1268;98109;-76
2023/03/27 05:06:15;;;;;;;27.50;13.90;;;;;;;3.71;92.04;99252.94;104777;1264;97972;-77
2023/03/27 05:09:02;;;;;;;20.40;13.80;;;;;;;3.67;92.03;99253.65;104974;1266;98540;-75
2023/03/27 05:11:51;;;;;;;25.70;14.10;;;;;;;3.66;92.28;99256.08;105061;1268;102634;-77
2023/03/27 05:14:37;;;;;;;20.90;13.50;;;;;;;3.66;92.34;99258.82;104945;1266;99109;-76
2023/03/27 05:17:24;;;;;;;22.70;13.30;;;;;;;3.63;92.62;99264.64;104817;1266;98015;-76
2023/03/27 05:20:13;;;;;;;22.30;12.90;;;;;;;3.61;92.85;99269.48;104964;1265;97985;-77
2023/03/27 05:22:59;;;;;;;22.30;13.90;;;;;;;3.61;93.31;99270.84;105080;1264;98541;-77
2023/03/27 05:25:46;;;;;;;21.60;12.30;;;;;;;3.63;93.73;99265.17;104870;1268;102638;-76
2023/03/27 05:28:35;;;;;;;19.20;11.60;;;;;;;3.66;94.07;99273.49;104878;1268;100773;-77
2023/03/27 05:31:21;;;;;;;17.90;11.20;;;;;;;3.70;94.52;99276.71;104931;1266;98100;-77
2023/03/27 05:34:19;;;;;;;26.40;11.10;;;;;;;3.77;95.08;99274.77;104896;1271;97997;-77
2023/03/27 05:37:07;;;;;;;20.70;9.70;;;;;;;3.85;95.28;99277.44;104883;1266;99099;-78
2023/03/27 05:39:59;;;;;;;19.40;9.40;;;;;;;3.91;95.56;99278.13;104709;1263;102234;-75
2023/03/27 05:42:45;;;;;;;17.70;8.90;;;;;;;3.96;95.60;99279.91;104699;1268;99212;-77
2023/03/27 05:45:32;;;;;;;14.90;7.40;;;;;;;3.98;95.30;99282.52;104715;1271;98554;-76
2023/03/27 05:48:19;;;;;;;17.70;8.70;;;;;;;3.99;95.34;99286.65;104943;1268;98055;-77
2023/03/27 05:51:05;;;;;;;20.50;8.80;;;;;;;4.00;95.15;99289.52;104734;1265;98617;-77
2023/03/27 05:53:51;;;;;;;14.30;7.40;;;;;;;4.01;95.09;99291.27;105126;1265;105124;-77
2023/03/27 05:56:40;;;;;;;16.00;7.20;;;;;;;4.02;94.70;99287.48;104836;1264;99192;-76
2023/03/27 05:59:25;;;;;;;11.80;5.50;;;;;;;3.99;94.07;99289.19;106356;1268;97981;-77
2023/03/27 06:02:17;;;;;;;12.50;4.80;;;;;;;3.96;93.81;99293.45;104866;1268;98181;-77
2023/03/27 06:05:12;;;;;;;15.60;5.20;;;;;;;3.99;93.79;99296.52;105367;1268;97761;-77
2023/03/27 06:07:58;;;;;;;11.90;4.60;;;;;;;4.03;93.68;99299.73;104835;1271;101372;-78
2023/03/27 06:10:44;;;;;;;10.50;4.40;;;;;;;4.08;93.49;99302.64;104892;1271;99102;-77
2023/03/27 06:13:36;;;;;;;8.60;3.90;;;;;;;4.13;93.25;99305.45;104927;1268;97952;-77
2023/03/27 06:16:26;;;;;;;13.50;3.90;;;;;;;4.15;93.52;99303.74;104820;1268;97984;-75
2023/03/27 06:19:17;;;;;;;12.30;3.70;;;;;;;4.15;92.83;99306.39;104735;1268;98568;-76
2023/03/27 06:22:07;;;;;;;16.20;3.60;;;;;;;4.16;92.59;99308.77;104745;1266;101423;-77
2023/03/27 06:24:54;;;;;;;9.60;3.60;;;;;;;4.22;92.34;99311.38;104648;1271;99091;-76
2023/03/27 06:27:44;;;;;;;9.80;4.10;;;;;;;4.26;91.69;99308.46;104879;1267;98743;-76
2023/03/27 06:30:29;;;;;;;11.20;3.50;;;;;;;4.30;91.65;99312.81;104782;1264;98123;-77
2023/03/27 06:33:35;;;;;;;10.60;3.80;;;;;;;4.35;91.80;99318.92;104964;1268;97972;-78
2023/03/27 06:36:23;;;;;;;10.30;3.70;;;;;;;4.40;91.38;99319.17;105091;1268;102602;-77
2023/03/27 06:39:09;;;;;;;8.60;3.70;;;;;;;4.43;90.84;99324.83;104804;1268;99137;-77
2023/03/27 06:41:56;;;;;;;9.30;4.60;;;;;;;4.48;90.89;99331.35;104921;1266;97987;-75
2023/03/27 06:44:53;;;;;;;10.10;3.20;;;;;;;4.53;90.18;99335.02;104996;1268;97960;-78
2023/03/27 06:47:59;;;;;;;14.40;3.40;;;;;;;4.48;89.56;99337.48;105082;1266;97886;-77
2023/03/27 06:50:56;;;;;;;9.80;3.10;;;;;;;4.48;89.69;99339.05;104637;1264;101350;-76
2023/03/27 06:53:42;;;;;;;7.30;3.30;;;;;;;4.51;89.31;99343.48;104770;1270;99189;-77
2023/03/27 06:56:28;;;;;;;8.70;3.20;;;;;;;4.53;88.97;99348.05;104771;1268;99346;-77
2023/03/27 06:59:33;;;;;;;11.80;3.00;;;;;;;4.52;88.25;99354.67;104910;1271;98023;-77
2023/03/27 07:02:20;;;;;;;7.70;2.20;;;;;;;4.54;88.30;99351.27;104652;1265;99346;-77
2023/03/27 07:05:30;;;;;;;7.00;2.70;;;;;;;4.68;88.68;99356.73;104814;1267;101369;-76
2023/03/27 07:08:18;;;;;;;5.40;2.40;;;;;;;4.80;88.31;99361.73;104880;1269;99126;-76
2023/03/27 07:11:05;;;;;;;7.00;3.40;;;;;;;4.87;87.68;99368.86;104854;1269;97955;-78
2023/03/27 07:13:50;;;;;;;7.70;3.10;;;;;;;4.93;87.58;99379.57;104695;1270;98467;-77
2023/03/27 07:16:41;;;;;;;10.40;2.60;;;;;;;5.01;87.35;99381.63;104953;1269;98855;-78
2023/03/27 07:19:27;;;;;;;6.80;2.50;;;;;;;4.98;86.02;99385.71;104872;1269;102009;-77
2023/03/27 07:22:20;;;;;;;6.60;3.00;;;;;;;4.92;85.83;99380.02;104976;1266;99276;-77
2023/03/27 07:25:06;;;;;;;5.90;2.50;;;;;;;4.89;85.23;99376.21;104980;1268;98095;-78
2023/03/27 07:27:58;;;;;;;7.50;2.80;;;;;;;4.90;85.62;99376.09;104839;1264;99363;-77
2023/03/27 07:30:43;;;;;;;5.80;3.00;;;;;;;5.01;85.90;99375.66;104785;1271;98493;-76
2023/03/27 07:33:29;;;;;;;8.10;3.00;;;;;;;5.13;85.47;99379.77;104951;1271;102123;-77
2023/03/27 07:36:15;;;;;;;5.30;2.90;;;;;;;5.24;85.25;99386.44;104962;1268;100149;-77
2023/03/27 07:39:11;;;;;;;4.80;2.60;;;;;;;5.40;85.40;99391.96;104977;1268;98116;-77
2023/03/27 07:41:57;;;;;;;6.60;2.70;;;;;;;5.54;85.52;99393.64;105140;1265;97977;-79
2023/03/27 07:45:03;;;;;;;8.30;2.70;;;;;;;5.64;84.69;99398.09;104854;1264;98486;-77
2023/03/27 07:47:49;;;;;;;4.70;2.40;;;;;;;5.61;82.94;99403.20;105101;1268;102625;-77
2023/03/27 07:50:36;;;;;;;5.60;3.00;;;;;;;5.50;82.40;99405.76;105241;1271;100384;-77
2023/03/27 07:53:22;;;;;;;3.70;2.20;;;;;;;5.47;82.03;99410.60;104833;1269;99026;-77
2023/03/27 07:56:09;;;;;;;5.20;2.70;;;;;;;5.43;82.00;99410.37;105044;1266;97970;-76
2023/03/27 07:58:55;;;;;;;5.00;2.50;;;;;;;5.42;81.76;99411.13;104819;1268;97973;-76
2023/03/27 08:01:41;;;;;;;4.80;2.80;;;;;;;5.37;81.42;99415.09;104883;1268;102647;-76
2023/03/27 08:04:27;;;;;;;4.90;2.60;;;;;;;5.38;82.20;99424.25;104807;1266;99838;-77
2023/03/27 08:07:26;;;;;;;6.10;2.80;;;;;;;5.43;81.89;99428.70;104888;1268;97993;-78
2023/03/27 08:10:18;;;;;;;6.50;2.60;;;;;;;5.38;81.02;99430.98;104888;1269;98149;-78
2023/03/27 08:13:12;;;;;;;5.10;2.60;;;;;;;5.33;81.09;99436.11;104893;1271;98502;-77
2023/03/27 08:16:17;;;;;;;7.40;2.80;;;;;;;5.32;80.81;99441.03;104810;1271;101368;-78
2023/03/27 08:19:05;;;;;;;5.40;2.70;;;;;;;5.30;80.30;99450.60;104735;1270;99740;-76
2023/03/27 08:21:54;;;;;;;3.50;2.00;;;;;;;5.19;79.45;99453.34;104654;1277;98010;-76
2023/03/27 08:24:43;;;;;;;6.60;2.90;;;;;;;5.12;79.49;99462.36;104685;1270;99136;-76
2023/03/27 08:27:43;;;;;;;6.70;2.30;;;;;;;5.12;79.74;99469.50;105048;1268;98490;-77
2023/03/27 08:30:29;;;;;;;4.40;2.30;;;;;;;5.13;79.21;99474.06;105008;1271;102660;-76
2023/03/27 08:33:15;;;;;;;4.60;2.50;;;;;;;5.12;78.87;99477.96;104692;1266;100575;-77
2023/03/27 08:36:01;;;;;;;4.60;2.20;;;;;;;5.11;78.36;99480.20;104767;1268;99006;-76
2023/03/27 08:38:48;;;;;;;3.70;2.00;;;;;;;5.11;78.37;99477.58;105430;1268;97994;-76
2023/03/27 08:41:43;;;;;;;4.00;2.40;;;;;;;5.18;78.44;99477.84;104996;1269;98384;-78
2023/03/27 08:44:35;;;;;;;4.60;2.10;;;;;;;5.26;78.21;99481.82;104859;1269;102293;-78
2023/03/27 08:47:43;;;;;;;3.60;2.10;;;;;;;5.28;77.86;99484.02;105083;1266;99057;-76
2023/03/27 08:50:39;;;;;;;3.40;2.10;;;;;;;5.23;77.39;99485.89;104871;1270;98384;-77
2023/03/27 08:54:02;;;;;;;9.50;3.00;;;;;;;5.19;77.46;99490.34;104691;1270;98066;-77
2023/03/27 08:56:49;;;;;;;;;;;;;;;5.16;77.20;99490.38;104831;1264;98075;-77
2023/03/27 08:59:35;;;;;;;4.70;2.40;;;;;;;5.15;77.67;99497.74;104834;1270;101406;-76
2023/03/27 09:02:35;;;;;;;5.10;2.80;;;;;;;5.15;77.22;99505.25;105148;1266;99085;-77
2023/03/27 09:05:30;;;;;;;6.20;2.60;;;;;;;5.13;76.76;99508.98;104670;1270;98097;-77
2023/03/27 09:08:51;;;;;;;7.00;2.50;;;;;;;5.06;76.38;99514.47;104860;1264;97999;-77
2023/03/27 09:12:01;;;;;;;6.70;2.70;;;;;;;4.99;76.84;99518.08;104751;1270;99572;-78
2023/03/27 09:15:00;;;;;;;4.80;2.20;;;;;;;5.00;77.09;99518.98;104892;1268;102955;-76
2023/03/27 09:18:16;;;;;;;2.90;2.50;;;;;;;5.00;76.65;99519.77;104784;1272;99082;-77
2023/03/27 09:21:09;;;;;;;6.40;2.20;;;;;;;4.98;76.15;99521.55;104624;1266;97978;-76
2023/03/27 09:24:00;;;;;;;3.90;1.80;;;;;;;4.96;75.94;99526.10;104632;1264;97976;-76
2023/03/27 09:27:18;;;;;;;4.70;1.90;;;;;;;4.96;76.02;99528.22;104615;1270;98928;-77
2023/03/27 09:30:27;;;;;;;4.10;2.20;;;;;;;4.97;75.91;99531.82;104841;1274;101416;-78
2023/03/27 09:33:19;;;;;;;3.80;1.70;;;;;;;4.98;75.76;99534.34;104899;1269;100808;-77
2023/03/27 09:36:07;;;;;;;3.20;1.90;;;;;;;5.01;75.58;99536.73;104693;1277;100074;-76
2023/03/27 09:39:01;;;;;;;8.80;2.50;;;;;;;5.07;75.19;99539.91;104704;1264;98096;-77
2023/03/27 09:41:52;;;;;;;3.70;1.90;;;;;;;5.09;74.48;99540.19;104627;1269;98508;-78
2023/03/27 09:44:40;;;;;;;3.90;2.20;;;;;;;5.08;74.45;99541.63;104630;1272;101429;-77
2023/03/27 09:47:36;;;;;;;3.10;2.20;;;;;;;5.11;74.56;99547.64;104778;1264;99129;-78
2023/03/27 09:50:43;;;;;;;3.30;1.70;;;;;;;5.11;74.12;99547.08;104856;1269;98139;-78
2023/03/27 09:53:34;;;;;;;2.80;1.90;;;;;;;5.09;73.38;99557.02;104585;1269;98087;-77
2023/03/27 09:56:43;;;;;;;3.20;1.60;;;;;;;5.03;73.46;99555.34;104847;1268;97996;-76
2023/03/27 09:59:36;;;;;;;5.80;2.30;;;;;;;5.03;73.71;99555.80;104765;1270;102122;-77
2023/03/27 10:02:29;;;;;;;3.80;2.00;;;;;;;5.07;73.63;99556.73;105025;1270;99230;-77
2023/03/27 10:05:18;;;;;;;4.80;2.00;;;;;;;5.10;73.20;99558.24;104567;1273;97983;-76
2023/03/27 10:08:40;;;;;;;3.40;1.50;;;;;;;5.06;72.37;99558.91;105549;1269;99270;-81
2023/03/27 10:11:34;;;;;;;2.50;1.70;;;;;;;5.00;72.23;99556.36;105595;1264;97974;-80
2023/03/27 10:14:46;;;;;;;3.00;1.60;;;;;;;5.04;72.11;99558.67;105440;1269;101354;-82
2023/03/27 10:17:38;;;;;;;4.60;1.50;;;;;;;5.21;72.51;99558.24;105575;1270;99124;-84
2023/03/27 10:20:33;;;;;;;4.40;1.70;;;;;;;5.45;72.78;99548.19;105616;1263;98927;-83
2023/03/27 10:23:38;;;;;;;5.00;2.30;;;;;;;5.65;71.94;99557.54;105469;1271;97973;-83
2023/03/27 10:26:29;;;;;;;4.30;2.00;;;;;;;5.65;70.13;99557.22;104785;1264;98067;-78
2023/03/27 10:29:26;;;;;;;5.00;3.20;;;;;;;5.57;69.35;99556.18;104770;1271;102033;-77
2023/03/27 10:32:17;;;;;;;3.70;2.10;;;;;;;5.44;69.18;99563.66;105152;1264;99256;-78
2023/03/27 10:35:04;;;;;;;3.50;2.20;;;;;;;5.43;69.58;99568.47;105262;1269;99006;-82
2023/03/27 10:37:54;;;;;;;3.80;2.00;;;;;;;5.43;69.67;99575.34;105366;1273;97942;-86
2023/03/27 10:40:55;;;;;;;3.40;2.10;;;;;;;5.41;69.16;99574.15;105443;1264;98490;-82
2023/03/27 10:43:51;;;;;;;3.20;2.30;;;;;;;5.39;69.44;99577.38;105775;1264;101454;-79
2023/03/27 10:46:41;;;;;;;4.10;2.10;;;;;;;5.40;68.87;99576.18;105860;1263;99155;-84
2023/03/27 10:49:46;;;;;;;3.10;2.00;;;;;;;5.36;68.29;99571.17;105557;1270;98552;-76
2023/03/27 10:53:08;;;;;;;2.40;1.80;;;;;;;5.38;68.80;99571.36;104707;1264;97883;-76
2023/03/27 10:56:37;;;;;;;3.30;2.30;;;;;;;5.44;68.75;99574.86;104660;1264;98402;-77
2023/03/27 10:59:35;;;;;;;2.00;1.80;;;;;;;5.43;68.52;99578.48;104555;1264;101358;-78
2023/03/27 11:02:31;;;;;;;2.50;1.70;;;;;;;5.39;67.98;99581.87;104684;1270;100376;-75
2023/03/27 11:05:25;;;;;;;2.50;2.00;;;;;;;5.30;68.08;99581.18;104600;1263;99278;-76
2023/03/27 11:08:43;;;;;;;2.70;1.90;;;;;;;5.28;68.91;99584.38;104780;1267;98076;-75
2023/03/27 11:11:35;;;;;;;3.60;2.30;;;;;;;5.28;68.95;99584.27;104732;1270;98414;-75
2023/03/27 11:14:31;;;;;;;6.00;2.30;;;;;;;5.32;69.46;99590.49;104652;1267;102610;-76
2023/03/27 11:17:22;;;;;;;3.30;2.10;;;;;;;5.40;70.32;99591.25;104818;1267;100340;-76
2023/03/27 11:20:55;;;;;;;4.10;2.10;;;;;;;5.51;70.10;99590.00;104712;1263;98491;-75
2023/03/27 11:23:56;;;;;;;3.10;2.00;;;;;;;5.59;69.72;99590.64;104697;1268;97952;-76
2023/03/27 11:26:56;;;;;;;2.20;1.90;;;;;;;5.68;69.83;99585.75;104545;1267;99248;-75
2023/03/27 11:30:06;;;;;;;4.10;2.30;;;;;;;5.77;69.84;99584.63;104666;1264;101336;-77
2023/03/27 11:33:34;;;;;;;3.90;2.40;;;;;;;5.85;69.56;99589.03;104749;1264;100559;-75
2023/03/27 11:36:33;;;;;;;;;;;;;;;5.90;70.35;99584.30;104627;1270;98118;-77
2023/03/27 11:39:54;;;;;;;4.90;2.50;;;;;;;5.96;70.15;99583.48;104529;1271;97949;-75
2023/03/27 11:42:44;;;;;;;2.60;2.20;;;;;;;5.92;69.78;99585.16;104741;1270;97911;-75
2023/03/27 11:45:55;;;;;;;3.70;2.00;;;;;;;5.89;70.36;99583.77;105037;1270;101336;-75
2023/03/27 11:48:56;;;;;;;5.10;2.60;;;;;;;5.83;69.37;99581.36;104932;1264;100329;-75
2023/03/27 11:51:53;;;;;;;6.30;2.60;;;;;;;5.78;69.90;99580.16;104922;1269;100235;-76
2023/03/27 11:54:42;;;;;;;5.20;2.30;;;;;;;5.86;70.54;99577.86;104463;1264;97898;-75
2023/03/27 11:58:18;;;;;;;3.90;2.50;;;;;;;5.91;70.14;99578.95;104721;1270;98515;-76
2023/03/27 12:01:30;;;;;;;2.40;2.00;;;;;;;5.95;70.79;99577.34;104670;1270;102600;-76
2023/03/27 12:04:35;;;;;;;3.30;2.20;;;;;;;6.03;70.66;99578.72;104692;1264;100022;-77
2023/03/27 12:07:48;;;;;;;3.10;2.70;;;;;;;5.99;70.42;99580.25;104745;1264;97976;-78
2023/03/27 12:10:38;;;;;;;4.20;2.20;;;;;;;6.01;70.87;99581.39;104578;1264;97885;-77
2023/03/27 12:14:04;;;;;;;4.30;2.00;;;;;;;6.03;70.41;99584.13;104629;1270;97913;-77
2023/03/27 12:17:31;;;;;;;3.30;2.10;;;;;;;6.04;69.96;99589.14;104546;1279;101914;-75
2023/03/27 12:20:36;;;;;;;2.20;1.90;;;;;;;6.14;69.86;99584.45;104669;1264;99435;-76
2023/03/27 12:23:55;;;;;;;3.10;2.20;;;;;;;6.14;68.90;99585.35;104631;1269;97914;-76
2023/03/27 12:27:18;;;;;;;2.10;1.70;;;;;;;6.02;68.25;99582.54;104620;1264;97996;-76
2023/03/27 12:30:12;;;;;;;3.10;2.10;;;;;;;5.90;67.87;99579.67;104711;1268;98489;-87
2023/03/27 12:33:39;;;;;;;4.70;2.10;;;;;;;5.83;67.56;99584.11;104810;1270;101465;-77
2023/03/27 12:36:35;;;;;;;3.30;2.30;;;;;;;5.75;67.99;99582.52;105071;1264;99108;-77
2023/03/27 12:39:23;;;;;;;3.20;1.90;;;;;;;5.75;68.23;99582.55;104818;1269;98854;-83
2023/03/27 12:42:14;;;;;;;3.50;2.10;;;;;;;5.79;68.03;99585.73;105652;1268;97887;-83
2023/03/27 12:45:05;;;;;;;2.40;1.90;;;;;;;5.84;68.40;99590.46;105655;1264;98007;-83
2023/03/27 12:48:08;;;;;;;3.30;2.20;;;;;;;5.93;68.79;99592.94;105395;1267;101337;-82
2023/03/27 12:50:56;;;;;;;3.90;1.90;;;;;;;6.04;68.78;99598.23;106639;1267;100373;-80
2023/03/27 12:53:49;;;;;;;1.80;1.70;;;;;;;6.17;68.76;99603.52;105705;1264;98048;-80
2023/03/27 12:56:35;;;;;;;4.40;3.40;;;;;;;6.22;68.10;99608.11;104961;1271;99332;-79
2023/03/27 12:59:25;;;;;;;2.20;1.70;;;;;;;6.17;67.63;99619.14;105061;1270;98499;-83
2023/03/27 13:02:13;;;;;;;2.60;1.90;;;;;;;6.02;66.74;99623.45;104861;1264;102290;-78
2023/03/27 13:05:23;;;;;;;1.50;1.30;;;;;;;5.88;66.86;99622.11;105190;1264;101298;-78
2023/03/27 13:08:31;;;;;;;2.70;1.70;;;;;;;5.77;66.86;99629.99;105301;1264;98099;-78
2023/03/27 13:12:00;;;;;;;3.20;1.80;;;;;;;5.64;67.73;99637.11;105840;1270;97898;-78
2023/03/27 13:15:24;;;;;;;2.50;1.50;;;;;;;5.57;68.00;99643.84;105750;1269;97975;-86
2023/03/27 13:18:50;;;;;;;3.30;1.50;;;;;;;5.53;68.39;99647.70;106183;1264;102161;-80
2023/03/27 13:22:10;;;;;;;2.30;1.60;;;;;;;5.56;68.80;99652.11;105338;1264;100090;-84
2023/03/27 13:25:17;;;;;;;3.20;2.00;;;;;;;5.57;68.36;99658.68;105699;1264;98950;-82
2023/03/27 13:28:33;;;;;;;4.20;1.90;;;;;;;5.55;68.63;99662.28;106206;1268;97858;-81
2023/03/27 13:31:49;;;;;;;2.60;1.60;;;;;;;5.57;69.16;99668.41;105878;1264;98078;-81
2023/03/27 13:35:03;;;;;;;2.70;1.70;;;;;;;5.56;68.40;99676.02;105331;1269;102106;-78
2023/03/27 13:37:50;;;;;;;2.70;1.60;;;;;;;5.50;68.25;99683.44;107316;1266;101450;-86